sensor_id;sensor_type;location;lat;lon;timestamp;P1;durP1;ratioP1;P2;durP2;ratioP2
60086;SDS011;45960;53.630;55.972;2023-12-07T00:00:46;15.95;;;5.82;;
60086;SDS011;45960;53.630;55.972;2023-12-07T00:01:47;18.65;;;6.47;;
60086;SDS011;45960;53.630;55.972;2023-12-07T00:02:48;14.77;;;6.40;;
60086;SDS011;45960;53.630;55.972;2023-12-07T00:03:49;16.63;;;5.10;;
60086;SDS011;45960;53.630;55.972;2023-12-07T00:04:50;11.95;;;5.65;;
60086;SDS011;45960;53.630;55.972;2023-12-07T00:05:51;17.60;;;6.57;;
60086;SDS011;45960;53.630;55.972;2023-12-07T00:06:52;18.23;;;6.10;;
60086;SDS011;45960;53.630;55.972;2023-12-07T00:07:53;12.82;;;6.43;;
60086;SDS011;45960;53.630;55.972;2023-12-07T00:08:54;17.23;;;6.30;;
60086;SDS011;45960;53.630;55.972;2023-12-07T00:09:55;17.05;;;6.95;;
60086;SDS011;45960;53.630;55.972;2023-12-07T00:10:56;16.23;;;6.50;;
60086;SDS011;45960;53.630;55.972;2023-12-07T00:11:56;15.77;;;6.35;;
60086;SDS011;45960;53.630;55.972;2023-12-07T00:12:57;15.45;;;6.13;;
60086;SDS011;45960;53.630;55.972;2023-12-07T00:13:58;14.90;;;6.28;;
60086;SDS011;45960;53.630;55.972;2023-12-07T00:14:59;10.40;;;5.30;;
60086;SDS011;45960;53.630;55.972;2023-12-07T00:16:00;16.58;;;6.15;;
60086;SDS011;45960;53.630;55.972;2023-12-07T00:17:02;14.88;;;5.43;;
60086;SDS011;45960;53.630;55.972;2023-12-07T00:18:03;14.77;;;5.22;;
60086;SDS011;45960;53.630;55.972;2023-12-07T00:19:04;17.00;;;6.38;;
60086;SDS011;45960;53.630;55.972;2023-12-07T00:20:05;13.60;;;5.88;;
60086;SDS011;45960;53.630;55.972;2023-12-07T00:21:08;13.95;;;5.55;;
60086;SDS011;45960;53.630;55.972;2023-12-07T00:22:09;12.82;;;5.97;;
60086;SDS011;45960;53.630;55.972;2023-12-07T00:23:10;17.02;;;7.15;;
60086;SDS011;45960;53.630;55.972;2023-12-07T00:24:12;15.10;;;6.18;;
60086;SDS011;45960;53.630;55.972;2023-12-07T00:25:13;13.13;;;6.78;;
60086;SDS011;45960;53.630;55.972;2023-12-07T00:26:14;14.85;;;5.95;;
60086;SDS011;45960;53.630;55.972;2023-12-07T00:27:15;18.90;;;7.03;;
60086;SDS011;45960;53.630;55.972;2023-12-07T00:28:16;15.20;;;6.88;;
60086;SDS011;45960;53.630;55.972;2023-12-07T00:29:17;12.52;;;6.18;;
60086;SDS011;45960;53.630;55.972;2023-12-07T00:30:18;12.63;;;6.47;;
60086;SDS011;45960;53.630;55.972;2023-12-07T00:31:19;18.05;;;7.18;;
60086;SDS011;45960;53.630;55.972;2023-12-07T00:32:20;15.10;;;6.22;;
60086;SDS011;45960;53.630;55.972;2023-12-07T00:33:21;20.23;;;6.35;;
60086;SDS011;45960;53.630;55.972;2023-12-07T00:34:22;14.30;;;6.32;;
60086;SDS011;45960;53.630;55.972;2023-12-07T00:35:23;20.38;;;7.00;;
60086;SDS011;45960;53.630;55.972;2023-12-07T00:36:24;16.95;;;6.63;;
60086;SDS011;45960;53.630;55.972;2023-12-07T00:37:25;20.02;;;7.88;;
60086;SDS011;45960;53.630;55.972;2023-12-07T00:38:27;18.58;;;7.05;;
60086;SDS011;45960;53.630;55.972;2023-12-07T00:39:28;15.88;;;6.13;;
60086;SDS011;45960;53.630;55.972;2023-12-07T00:40:29;23.95;;;7.28;;
60086;SDS011;45960;53.630;55.972;2023-12-07T00:41:30;18.63;;;6.20;;
60086;SDS011;45960;53.630;55.972;2023-12-07T00:42:32;17.02;;;5.43;;
60086;SDS011;45960;53.630;55.972;2023-12-07T00:43:33;22.20;;;7.97;;
60086;SDS011;45960;53.630;55.972;2023-12-07T00:44:38;14.05;;;5.53;;
60086;SDS011;45960;53.630;55.972;2023-12-07T00:45:40;13.82;;;6.50;;
60086;SDS011;45960;53.630;55.972;2023-12-07T00:46:41;16.13;;;6.15;;
60086;SDS011;45960;53.630;55.972;2023-12-07T00:47:41;10.93;;;5.40;;
60086;SDS011;45960;53.630;55.972;2023-12-07T00:48:42;15.25;;;5.97;;
60086;SDS011;45960;53.630;55.972;2023-12-07T00:49:43;9.80;;;5.38;;
60086;SDS011;45960;53.630;55.972;2023-12-07T00:50:44;12.00;;;6.45;;
60086;SDS011;45960;53.630;55.972;2023-12-07T00:51:46;11.82;;;5.25;;
60086;SDS011;45960;53.630;55.972;2023-12-07T00:52:47;13.50;;;5.38;;
60086;SDS011;45960;53.630;55.972;2023-12-07T00:53:48;10.73;;;4.57;;
60086;SDS011;45960;53.630;55.972;2023-12-07T00:54:49;9.55;;;4.53;;
60086;SDS011;45960;53.630;55.972;2023-12-07T00:55:50;13.18;;;4.95;;
60086;SDS011;45960;53.630;55.972;2023-12-07T00:56:51;13.63;;;5.75;;
60086;SDS011;45960;53.630;55.972;2023-12-07T00:57:52;11.88;;;5.13;;
60086;SDS011;45960;53.630;55.972;2023-12-07T00:58:53;13.27;;;6.10;;
60086;SDS011;45960;53.630;55.972;2023-12-07T00:59:54;12.25;;;5.70;;
60086;SDS011;45960;53.630;55.972;2023-12-07T01:00:55;11.30;;;5.47;;
60086;SDS011;45960;53.630;55.972;2023-12-07T01:01:56;15.73;;;5.43;;
60086;SDS011;45960;53.630;55.972;2023-12-07T01:02:57;13.70;;;5.85;;
60086;SDS011;45960;53.630;55.972;2023-12-07T01:03:57;10.85;;;5.32;;
60086;SDS011;45960;53.630;55.972;2023-12-07T01:04:59;11.68;;;5.47;;
60086;SDS011;45960;53.630;55.972;2023-12-07T01:05:59;16.67;;;5.60;;
60086;SDS011;45960;53.630;55.972;2023-12-07T01:07:00;13.50;;;5.82;;
60086;SDS011;45960;53.630;55.972;2023-12-07T01:08:01;14.20;;;5.88;;
60086;SDS011;45960;53.630;55.972;2023-12-07T01:09:03;11.63;;;5.68;;
60086;SDS011;45960;53.630;55.972;2023-12-07T01:10:04;13.93;;;5.75;;
60086;SDS011;45960;53.630;55.972;2023-12-07T01:11:06;12.32;;;5.45;;
60086;SDS011;45960;53.630;55.972;2023-12-07T01:12:07;11.35;;;5.25;;
60086;SDS011;45960;53.630;55.972;2023-12-07T01:13:08;10.73;;;4.95;;
60086;SDS011;45960;53.630;55.972;2023-12-07T01:14:09;15.63;;;6.35;;
60086;SDS011;45960;53.630;55.972;2023-12-07T01:15:11;14.48;;;6.85;;
60086;SDS011;45960;53.630;55.972;2023-12-07T01:16:13;18.27;;;7.45;;
60086;SDS011;45960;53.630;55.972;2023-12-07T01:17:14;19.38;;;6.80;;
60086;SDS011;45960;53.630;55.972;2023-12-07T01:18:14;17.45;;;6.70;;
60086;SDS011;45960;53.630;55.972;2023-12-07T01:19:15;20.33;;;7.95;;
60086;SDS011;45960;53.630;55.972;2023-12-07T01:20:17;25.50;;;7.97;;
60086;SDS011;45960;53.630;55.972;2023-12-07T01:21:18;18.30;;;7.85;;
60086;SDS011;45960;53.630;55.972;2023-12-07T01:22:19;21.48;;;9.70;;
60086;SDS011;45960;53.630;55.972;2023-12-07T01:23:21;13.75;;;5.78;;
60086;SDS011;45960;53.630;55.972;2023-12-07T01:24:22;22.65;;;7.65;;
60086;SDS011;45960;53.630;55.972;2023-12-07T01:25:23;14.65;;;6.75;;
60086;SDS011;45960;53.630;55.972;2023-12-07T01:26:24;17.92;;;6.45;;
60086;SDS011;45960;53.630;55.972;2023-12-07T01:27:25;14.50;;;6.38;;
60086;SDS011;45960;53.630;55.972;2023-12-07T01:28:26;16.52;;;6.07;;
60086;SDS011;45960;53.630;55.972;2023-12-07T01:29:27;21.98;;;6.55;;
60086;SDS011;45960;53.630;55.972;2023-12-07T01:30:28;19.73;;;7.38;;
60086;SDS011;45960;53.630;55.972;2023-12-07T01:31:29;16.42;;;6.68;;
60086;SDS011;45960;53.630;55.972;2023-12-07T01:32:30;14.80;;;6.78;;
60086;SDS011;45960;53.630;55.972;2023-12-07T01:33:31;17.85;;;7.38;;
60086;SDS011;45960;53.630;55.972;2023-12-07T01:34:32;16.48;;;6.72;;
60086;SDS011;45960;53.630;55.972;2023-12-07T01:35:33;23.83;;;8.02;;
60086;SDS011;45960;53.630;55.972;2023-12-07T01:36:34;22.35;;;7.40;;
60086;SDS011;45960;53.630;55.972;2023-12-07T01:37:36;17.38;;;7.05;;
60086;SDS011;45960;53.630;55.972;2023-12-07T01:38:37;21.20;;;8.43;;
60086;SDS011;45960;53.630;55.972;2023-12-07T01:39:38;19.80;;;8.10;;
60086;SDS011;45960;53.630;55.972;2023-12-07T01:40:39;17.58;;;7.85;;
60086;SDS011;45960;53.630;55.972;2023-12-07T01:41:40;16.17;;;7.15;;
60086;SDS011;45960;53.630;55.972;2023-12-07T01:42:48;11.98;;;6.03;;
60086;SDS011;45960;53.630;55.972;2023-12-07T01:43:50;13.95;;;7.22;;
60086;SDS011;45960;53.630;55.972;2023-12-07T01:44:51;11.32;;;5.15;;
60086;SDS011;45960;53.630;55.972;2023-12-07T01:45:53;14.18;;;6.18;;
60086;SDS011;45960;53.630;55.972;2023-12-07T01:46:56;13.25;;;5.88;;
60086;SDS011;45960;53.630;55.972;2023-12-07T01:47:58;13.98;;;5.78;;
60086;SDS011;45960;53.630;55.972;2023-12-07T01:49:00;18.75;;;5.10;;
60086;SDS011;45960;53.630;55.972;2023-12-07T01:50:01;13.43;;;6.05;;
60086;SDS011;45960;53.630;55.972;2023-12-07T01:51:06;16.85;;;5.78;;
60086;SDS011;45960;53.630;55.972;2023-12-07T01:52:08;11.05;;;5.65;;
60086;SDS011;45960;53.630;55.972;2023-12-07T01:53:10;10.40;;;4.65;;
60086;SDS011;45960;53.630;55.972;2023-12-07T01:54:13;9.63;;;4.22;;
60086;SDS011;45960;53.630;55.972;2023-12-07T01:55:14;14.13;;;6.18;;
60086;SDS011;45960;53.630;55.972;2023-12-07T01:56:16;17.90;;;5.85;;
60086;SDS011;45960;53.630;55.972;2023-12-07T01:57:17;15.40;;;6.47;;
60086;SDS011;45960;53.630;55.972;2023-12-07T01:58:19;15.32;;;6.15;;
60086;SDS011;45960;53.630;55.972;2023-12-07T01:59:20;21.92;;;7.55;;
60086;SDS011;45960;53.630;55.972;2023-12-07T02:00:22;17.60;;;8.05;;
60086;SDS011;45960;53.630;55.972;2023-12-07T02:01:22;17.23;;;7.32;;
60086;SDS011;45960;53.630;55.972;2023-12-07T02:02:23;13.75;;;7.07;;
60086;SDS011;45960;53.630;55.972;2023-12-07T02:03:25;18.67;;;8.52;;
60086;SDS011;45960;53.630;55.972;2023-12-07T02:04:28;21.80;;;6.65;;
60086;SDS011;45960;53.630;55.972;2023-12-07T02:05:31;18.17;;;7.70;;
60086;SDS011;45960;53.630;55.972;2023-12-07T02:06:32;15.27;;;6.70;;
60086;SDS011;45960;53.630;55.972;2023-12-07T02:07:34;15.05;;;6.03;;
60086;SDS011;45960;53.630;55.972;2023-12-07T02:08:35;22.58;;;7.30;;
60086;SDS011;45960;53.630;55.972;2023-12-07T02:09:41;16.52;;;7.13;;
60086;SDS011;45960;53.630;55.972;2023-12-07T02:10:42;18.40;;;7.10;;
60086;SDS011;45960;53.630;55.972;2023-12-07T02:11:43;16.38;;;7.18;;
60086;SDS011;45960;53.630;55.972;2023-12-07T02:12:44;20.27;;;7.72;;
60086;SDS011;45960;53.630;55.972;2023-12-07T02:13:46;16.67;;;8.18;;
60086;SDS011;45960;53.630;55.972;2023-12-07T02:14:50;12.98;;;6.85;;
60086;SDS011;45960;53.630;55.972;2023-12-07T02:15:54;15.38;;;6.80;;
60086;SDS011;45960;53.630;55.972;2023-12-07T02:17:02;17.90;;;7.57;;
60086;SDS011;45960;53.630;55.972;2023-12-07T02:18:23;19.38;;;7.28;;
60086;SDS011;45960;53.630;55.972;2023-12-07T02:20:40;19.35;;;8.05;;
60086;SDS011;45960;53.630;55.972;2023-12-07T02:21:47;22.17;;;8.10;;
60086;SDS011;45960;53.630;55.972;2023-12-07T02:23:00;20.55;;;8.65;;
60086;SDS011;45960;53.630;55.972;2023-12-07T02:24:02;20.02;;;9.77;;
60086;SDS011;45960;53.630;55.972;2023-12-07T02:26:14;20.38;;;8.85;;
60086;SDS011;45960;53.630;55.972;2023-12-07T02:27:32;21.83;;;7.85;;
60086;SDS011;45960;53.630;55.972;2023-12-07T02:28:36;21.95;;;8.48;;
60086;SDS011;45960;53.630;55.972;2023-12-07T02:29:38;23.13;;;7.38;;
60086;SDS011;45960;53.630;55.972;2023-12-07T02:30:38;23.52;;;8.20;;
60086;SDS011;45960;53.630;55.972;2023-12-07T02:31:39;17.52;;;7.15;;
60086;SDS011;45960;53.630;55.972;2023-12-07T02:32:41;22.08;;;8.45;;
60086;SDS011;45960;53.630;55.972;2023-12-07T02:33:44;23.00;;;8.27;;
60086;SDS011;45960;53.630;55.972;2023-12-07T02:34:45;16.52;;;8.30;;
60086;SDS011;45960;53.630;55.972;2023-12-07T02:35:46;16.77;;;8.48;;
60086;SDS011;45960;53.630;55.972;2023-12-07T02:36:47;19.70;;;8.00;;
60086;SDS011;45960;53.630;55.972;2023-12-07T02:37:51;20.50;;;9.20;;
60086;SDS011;45960;53.630;55.972;2023-12-07T02:38:56;24.15;;;9.00;;
60086;SDS011;45960;53.630;55.972;2023-12-07T02:39:59;18.48;;;8.88;;
60086;SDS011;45960;53.630;55.972;2023-12-07T02:41:01;20.42;;;8.70;;
60086;SDS011;45960;53.630;55.972;2023-12-07T02:42:03;18.98;;;8.40;;
60086;SDS011;45960;53.630;55.972;2023-12-07T02:43:06;24.65;;;9.77;;
60086;SDS011;45960;53.630;55.972;2023-12-07T02:44:08;21.63;;;9.88;;
60086;SDS011;45960;53.630;55.972;2023-12-07T02:45:10;20.13;;;9.43;;
60086;SDS011;45960;53.630;55.972;2023-12-07T02:46:12;26.58;;;8.82;;
60086;SDS011;45960;53.630;55.972;2023-12-07T02:47:13;38.97;;;10.18;;
60086;SDS011;45960;53.630;55.972;2023-12-07T02:48:15;25.63;;;9.18;;
60086;SDS011;45960;53.630;55.972;2023-12-07T02:49:17;23.27;;;9.52;;
60086;SDS011;45960;53.630;55.972;2023-12-07T02:50:18;28.35;;;10.20;;
60086;SDS011;45960;53.630;55.972;2023-12-07T02:51:19;20.70;;;8.80;;
60086;SDS011;45960;53.630;55.972;2023-12-07T02:52:20;25.27;;;9.40;;
60086;SDS011;45960;53.630;55.972;2023-12-07T02:53:21;30.80;;;10.63;;
60086;SDS011;45960;53.630;55.972;2023-12-07T02:54:22;24.83;;;9.40;;
60086;SDS011;45960;53.630;55.972;2023-12-07T02:55:23;23.65;;;9.32;;
60086;SDS011;45960;53.630;55.972;2023-12-07T02:56:24;20.98;;;9.57;;
60086;SDS011;45960;53.630;55.972;2023-12-07T02:57:25;22.50;;;10.38;;
60086;SDS011;45960;53.630;55.972;2023-12-07T02:58:27;23.20;;;9.70;;
60086;SDS011;45960;53.630;55.972;2023-12-07T02:59:28;23.33;;;9.23;;
60086;SDS011;45960;53.630;55.972;2023-12-07T03:00:29;23.08;;;8.45;;
60086;SDS011;45960;53.630;55.972;2023-12-07T03:01:30;24.88;;;8.85;;
60086;SDS011;45960;53.630;55.972;2023-12-07T03:02:35;22.77;;;9.13;;
60086;SDS011;45960;53.630;55.972;2023-12-07T03:03:37;13.23;;;6.63;;
60086;SDS011;45960;53.630;55.972;2023-12-07T03:04:39;17.85;;;6.70;;
60086;SDS011;45960;53.630;55.972;2023-12-07T03:05:40;18.85;;;6.68;;
60086;SDS011;45960;53.630;55.972;2023-12-07T03:06:41;17.45;;;6.65;;
60086;SDS011;45960;53.630;55.972;2023-12-07T03:07:42;17.13;;;6.78;;
60086;SDS011;45960;53.630;55.972;2023-12-07T03:08:43;18.38;;;8.95;;
60086;SDS011;45960;53.630;55.972;2023-12-07T03:09:44;26.20;;;9.75;;
60086;SDS011;45960;53.630;55.972;2023-12-07T03:10:45;25.45;;;8.85;;
60086;SDS011;45960;53.630;55.972;2023-12-07T03:11:45;19.90;;;8.35;;
60086;SDS011;45960;53.630;55.972;2023-12-07T03:12:46;26.13;;;9.45;;
60086;SDS011;45960;53.630;55.972;2023-12-07T03:13:47;18.30;;;7.97;;
60086;SDS011;45960;53.630;55.972;2023-12-07T03:14:48;19.65;;;7.97;;
60086;SDS011;45960;53.630;55.972;2023-12-07T03:15:50;19.38;;;8.02;;
60086;SDS011;45960;53.630;55.972;2023-12-07T03:16:51;17.75;;;7.47;;
60086;SDS011;45960;53.630;55.972;2023-12-07T03:17:51;16.98;;;7.65;;
60086;SDS011;45960;53.630;55.972;2023-12-07T03:18:52;18.75;;;8.75;;
60086;SDS011;45960;53.630;55.972;2023-12-07T03:19:53;17.88;;;7.57;;
60086;SDS011;45960;53.630;55.972;2023-12-07T03:20:54;20.33;;;7.95;;
60086;SDS011;45960;53.630;55.972;2023-12-07T03:21:55;14.63;;;6.55;;
60086;SDS011;45960;53.630;55.972;2023-12-07T03:22:56;16.42;;;6.82;;
60086;SDS011;45960;53.630;55.972;2023-12-07T03:23:57;14.60;;;7.07;;
60086;SDS011;45960;53.630;55.972;2023-12-07T03:24:58;17.70;;;7.63;;
60086;SDS011;45960;53.630;55.972;2023-12-07T03:25:59;17.25;;;7.40;;
60086;SDS011;45960;53.630;55.972;2023-12-07T03:27:00;21.60;;;7.25;;
60086;SDS011;45960;53.630;55.972;2023-12-07T03:28:01;16.52;;;7.25;;
60086;SDS011;45960;53.630;55.972;2023-12-07T03:29:02;24.50;;;8.75;;
60086;SDS011;45960;53.630;55.972;2023-12-07T03:30:03;21.40;;;8.45;;
60086;SDS011;45960;53.630;55.972;2023-12-07T03:31:05;17.23;;;7.82;;
60086;SDS011;45960;53.630;55.972;2023-12-07T03:32:06;23.02;;;8.30;;
60086;SDS011;45960;53.630;55.972;2023-12-07T03:33:07;14.60;;;6.80;;
60086;SDS011;45960;53.630;55.972;2023-12-07T03:34:08;14.70;;;6.53;;
60086;SDS011;45960;53.630;55.972;2023-12-07T03:35:09;19.80;;;8.00;;
60086;SDS011;45960;53.630;55.972;2023-12-07T03:36:11;21.17;;;8.68;;
60086;SDS011;45960;53.630;55.972;2023-12-07T03:37:12;17.73;;;7.85;;
60086;SDS011;45960;53.630;55.972;2023-12-07T03:38:14;18.02;;;8.18;;
60086;SDS011;45960;53.630;55.972;2023-12-07T03:39:15;18.83;;;8.15;;
60086;SDS011;45960;53.630;55.972;2023-12-07T03:40:22;16.55;;;7.88;;
60086;SDS011;45960;53.630;55.972;2023-12-07T03:41:23;19.52;;;7.43;;
60086;SDS011;45960;53.630;55.972;2023-12-07T03:42:24;26.77;;;9.20;;
60086;SDS011;45960;53.630;55.972;2023-12-07T03:43:25;15.45;;;7.15;;
60086;SDS011;45960;53.630;55.972;2023-12-07T03:44:26;20.20;;;7.43;;
60086;SDS011;45960;53.630;55.972;2023-12-07T03:45:27;14.50;;;6.60;;
60086;SDS011;45960;53.630;55.972;2023-12-07T03:46:28;15.77;;;6.90;;
60086;SDS011;45960;53.630;55.972;2023-12-07T03:47:29;16.60;;;5.90;;
60086;SDS011;45960;53.630;55.972;2023-12-07T03:48:31;22.52;;;8.27;;
60086;SDS011;45960;53.630;55.972;2023-12-07T03:49:33;12.65;;;6.43;;
60086;SDS011;45960;53.630;55.972;2023-12-07T03:50:33;13.88;;;6.63;;
60086;SDS011;45960;53.630;55.972;2023-12-07T03:51:35;21.02;;;7.05;;
60086;SDS011;45960;53.630;55.972;2023-12-07T03:52:37;15.95;;;6.35;;
60086;SDS011;45960;53.630;55.972;2023-12-07T03:53:38;15.60;;;5.70;;
60086;SDS011;45960;53.630;55.972;2023-12-07T03:54:38;22.50;;;8.18;;
60086;SDS011;45960;53.630;55.972;2023-12-07T03:55:39;19.38;;;6.65;;
60086;SDS011;45960;53.630;55.972;2023-12-07T03:56:40;13.80;;;5.95;;
60086;SDS011;45960;53.630;55.972;2023-12-07T03:57:41;12.00;;;5.45;;
60086;SDS011;45960;53.630;55.972;2023-12-07T03:58:42;13.45;;;5.72;;
60086;SDS011;45960;53.630;55.972;2023-12-07T03:59:43;13.20;;;5.68;;
60086;SDS011;45960;53.630;55.972;2023-12-07T04:00:45;15.10;;;6.20;;
60086;SDS011;45960;53.630;55.972;2023-12-07T04:01:46;13.10;;;5.40;;
60086;SDS011;45960;53.630;55.972;2023-12-07T04:02:47;12.70;;;5.18;;
60086;SDS011;45960;53.630;55.972;2023-12-07T04:03:48;15.75;;;5.35;;
60086;SDS011;45960;53.630;55.972;2023-12-07T04:04:49;15.38;;;5.32;;
60086;SDS011;45960;53.630;55.972;2023-12-07T04:05:50;19.05;;;6.78;;
60086;SDS011;45960;53.630;55.972;2023-12-07T04:06:51;14.25;;;5.65;;
60086;SDS011;45960;53.630;55.972;2023-12-07T04:07:52;15.13;;;6.25;;
60086;SDS011;45960;53.630;55.972;2023-12-07T04:08:53;15.18;;;6.95;;
60086;SDS011;45960;53.630;55.972;2023-12-07T04:09:54;22.70;;;7.00;;
60086;SDS011;45960;53.630;55.972;2023-12-07T04:10:55;18.08;;;6.70;;
60086;SDS011;45960;53.630;55.972;2023-12-07T04:11:56;10.65;;;6.05;;
60086;SDS011;45960;53.630;55.972;2023-12-07T04:12:57;16.98;;;6.97;;
60086;SDS011;45960;53.630;55.972;2023-12-07T04:13:58;13.93;;;6.05;;
60086;SDS011;45960;53.630;55.972;2023-12-07T04:14:59;12.90;;;5.15;;
60086;SDS011;45960;53.630;55.972;2023-12-07T04:16:01;12.48;;;5.78;;
60086;SDS011;45960;53.630;55.972;2023-12-07T04:17:03;16.27;;;6.20;;
60086;SDS011;45960;53.630;55.972;2023-12-07T04:18:04;20.88;;;7.25;;
60086;SDS011;45960;53.630;55.972;2023-12-07T04:19:05;18.73;;;5.70;;
60086;SDS011;45960;53.630;55.972;2023-12-07T04:20:06;14.30;;;5.82;;
60086;SDS011;45960;53.630;55.972;2023-12-07T04:21:08;15.80;;;6.18;;
60086;SDS011;45960;53.630;55.972;2023-12-07T04:22:09;18.00;;;6.75;;
60086;SDS011;45960;53.630;55.972;2023-12-07T04:23:10;15.73;;;6.68;;
60086;SDS011;45960;53.630;55.972;2023-12-07T04:24:11;17.50;;;6.25;;
60086;SDS011;45960;53.630;55.972;2023-12-07T04:25:12;18.27;;;6.22;;
60086;SDS011;45960;53.630;55.972;2023-12-07T04:26:13;22.33;;;5.97;;
60086;SDS011;45960;53.630;55.972;2023-12-07T04:27:15;16.35;;;6.13;;
60086;SDS011;45960;53.630;55.972;2023-12-07T04:28:16;9.77;;;5.25;;
60086;SDS011;45960;53.630;55.972;2023-12-07T04:29:18;16.35;;;6.07;;
60086;SDS011;45960;53.630;55.972;2023-12-07T04:30:19;13.68;;;5.15;;
60086;SDS011;45960;53.630;55.972;2023-12-07T04:31:20;16.40;;;7.00;;
60086;SDS011;45960;53.630;55.972;2023-12-07T04:32:22;15.23;;;6.03;;
60086;SDS011;45960;53.630;55.972;2023-12-07T04:33:23;13.05;;;5.90;;
60086;SDS011;45960;53.630;55.972;2023-12-07T04:34:24;14.52;;;6.32;;
60086;SDS011;45960;53.630;55.972;2023-12-07T04:35:24;18.95;;;8.48;;
60086;SDS011;45960;53.630;55.972;2023-12-07T04:36:25;20.23;;;7.03;;
60086;SDS011;45960;53.630;55.972;2023-12-07T04:37:26;18.52;;;7.10;;
60086;SDS011;45960;53.630;55.972;2023-12-07T04:38:27;19.23;;;7.70;;
60086;SDS011;45960;53.630;55.972;2023-12-07T04:39:28;19.60;;;6.97;;
60086;SDS011;45960;53.630;55.972;2023-12-07T04:40:29;21.70;;;6.60;;
60086;SDS011;45960;53.630;55.972;2023-12-07T04:41:30;18.98;;;6.68;;
60086;SDS011;45960;53.630;55.972;2023-12-07T04:42:31;16.85;;;8.55;;
60086;SDS011;45960;53.630;55.972;2023-12-07T04:43:32;15.68;;;6.88;;
60086;SDS011;45960;53.630;55.972;2023-12-07T04:44:34;17.45;;;7.65;;
60086;SDS011;45960;53.630;55.972;2023-12-07T04:45:35;22.67;;;8.13;;
60086;SDS011;45960;53.630;55.972;2023-12-07T04:46:36;40.42;;;9.57;;
60086;SDS011;45960;53.630;55.972;2023-12-07T04:47:37;26.90;;;8.77;;
60086;SDS011;45960;53.630;55.972;2023-12-07T04:48:38;24.83;;;9.40;;
60086;SDS011;45960;53.630;55.972;2023-12-07T04:49:39;51.65;;;9.50;;
60086;SDS011;45960;53.630;55.972;2023-12-07T04:50:40;45.53;;;11.43;;
60086;SDS011;45960;53.630;55.972;2023-12-07T04:51:41;29.77;;;10.15;;
60086;SDS011;45960;53.630;55.972;2023-12-07T04:52:47;33.72;;;10.98;;
60086;SDS011;45960;53.630;55.972;2023-12-07T04:53:47;40.50;;;11.32;;
60086;SDS011;45960;53.630;55.972;2023-12-07T04:54:48;33.03;;;11.07;;
60086;SDS011;45960;53.630;55.972;2023-12-07T04:55:49;27.27;;;9.68;;
60086;SDS011;45960;53.630;55.972;2023-12-07T04:56:50;34.83;;;10.93;;
60086;SDS011;45960;53.630;55.972;2023-12-07T04:57:51;25.70;;;9.32;;
60086;SDS011;45960;53.630;55.972;2023-12-07T04:58:52;38.78;;;11.45;;
60086;SDS011;45960;53.630;55.972;2023-12-07T04:59:53;44.30;;;12.45;;
60086;SDS011;45960;53.630;55.972;2023-12-07T05:00:54;29.17;;;11.50;;
60086;SDS011;45960;53.630;55.972;2023-12-07T05:01:56;41.92;;;12.60;;
60086;SDS011;45960;53.630;55.972;2023-12-07T05:02:57;43.95;;;11.95;;
60086;SDS011;45960;53.630;55.972;2023-12-07T05:03:57;42.95;;;12.07;;
60086;SDS011;45960;53.630;55.972;2023-12-07T05:04:58;47.47;;;12.88;;
60086;SDS011;45960;53.630;55.972;2023-12-07T05:05:59;47.92;;;12.02;;
60086;SDS011;45960;53.630;55.972;2023-12-07T05:07:01;36.42;;;9.82;;
60086;SDS011;45960;53.630;55.972;2023-12-07T05:08:04;24.10;;;9.40;;
60086;SDS011;45960;53.630;55.972;2023-12-07T05:09:05;34.28;;;10.10;;
60086;SDS011;45960;53.630;55.972;2023-12-07T05:10:09;43.30;;;10.80;;
60086;SDS011;45960;53.630;55.972;2023-12-07T05:11:10;31.75;;;9.13;;
60086;SDS011;45960;53.630;55.972;2023-12-07T05:12:11;26.33;;;9.02;;
60086;SDS011;45960;53.630;55.972;2023-12-07T05:13:12;24.10;;;9.57;;
60086;SDS011;45960;53.630;55.972;2023-12-07T05:14:13;25.52;;;7.72;;
60086;SDS011;45960;53.630;55.972;2023-12-07T05:15:14;17.60;;;8.20;;
60086;SDS011;45960;53.630;55.972;2023-12-07T05:16:15;26.23;;;7.30;;
60086;SDS011;45960;53.630;55.972;2023-12-07T05:17:16;19.88;;;8.07;;
60086;SDS011;45960;53.630;55.972;2023-12-07T05:18:17;27.52;;;9.20;;
60086;SDS011;45960;53.630;55.972;2023-12-07T05:19:19;21.02;;;7.75;;
60086;SDS011;45960;53.630;55.972;2023-12-07T05:20:21;26.08;;;7.75;;
60086;SDS011;45960;53.630;55.972;2023-12-07T05:21:24;27.90;;;8.05;;
60086;SDS011;45960;53.630;55.972;2023-12-07T05:22:25;28.77;;;8.13;;
60086;SDS011;45960;53.630;55.972;2023-12-07T05:23:26;25.25;;;8.15;;
60086;SDS011;45960;53.630;55.972;2023-12-07T05:24:27;14.65;;;7.05;;
60086;SDS011;45960;53.630;55.972;2023-12-07T05:25:28;19.08;;;8.10;;
60086;SDS011;45960;53.630;55.972;2023-12-07T05:26:30;14.65;;;6.57;;
60086;SDS011;45960;53.630;55.972;2023-12-07T05:27:33;20.40;;;6.88;;
60086;SDS011;45960;53.630;55.972;2023-12-07T05:28:35;18.75;;;7.30;;
60086;SDS011;45960;53.630;55.972;2023-12-07T05:29:37;20.63;;;7.70;;
60086;SDS011;45960;53.630;55.972;2023-12-07T05:30:38;16.60;;;7.28;;
60086;SDS011;45960;53.630;55.972;2023-12-07T05:31:40;18.13;;;6.90;;
60086;SDS011;45960;53.630;55.972;2023-12-07T05:32:40;14.90;;;7.07;;
60086;SDS011;45960;53.630;55.972;2023-12-07T05:33:41;20.40;;;7.80;;
60086;SDS011;45960;53.630;55.972;2023-12-07T05:34:42;13.35;;;6.53;;
60086;SDS011;45960;53.630;55.972;2023-12-07T05:35:44;18.95;;;7.60;;
60086;SDS011;45960;53.630;55.972;2023-12-07T05:36:44;20.42;;;8.43;;
60086;SDS011;45960;53.630;55.972;2023-12-07T05:37:46;18.98;;;8.48;;
60086;SDS011;45960;53.630;55.972;2023-12-07T05:38:47;15.25;;;8.32;;
60086;SDS011;45960;53.630;55.972;2023-12-07T05:39:48;22.67;;;8.32;;
60086;SDS011;45960;53.630;55.972;2023-12-07T05:40:49;24.75;;;9.60;;
60086;SDS011;45960;53.630;55.972;2023-12-07T05:41:50;25.55;;;10.02;;
60086;SDS011;45960;53.630;55.972;2023-12-07T05:42:51;23.05;;;10.00;;
60086;SDS011;45960;53.630;55.972;2023-12-07T05:43:52;18.27;;;7.63;;
60086;SDS011;45960;53.630;55.972;2023-12-07T05:44:53;22.92;;;9.95;;
60086;SDS011;45960;53.630;55.972;2023-12-07T05:45:55;21.58;;;8.77;;
60086;SDS011;45960;53.630;55.972;2023-12-07T05:46:56;32.95;;;10.68;;
60086;SDS011;45960;53.630;55.972;2023-12-07T05:47:58;23.85;;;9.48;;
60086;SDS011;45960;53.630;55.972;2023-12-07T05:48:59;28.67;;;11.35;;
60086;SDS011;45960;53.630;55.972;2023-12-07T05:50:00;20.23;;;9.88;;
60086;SDS011;45960;53.630;55.972;2023-12-07T05:51:04;23.38;;;9.05;;
60086;SDS011;45960;53.630;55.972;2023-12-07T05:52:05;24.98;;;10.57;;
60086;SDS011;45960;53.630;55.972;2023-12-07T05:53:06;29.70;;;9.80;;
60086;SDS011;45960;53.630;55.972;2023-12-07T05:54:07;20.73;;;9.30;;
60086;SDS011;45960;53.630;55.972;2023-12-07T05:55:11;25.70;;;7.93;;
60086;SDS011;45960;53.630;55.972;2023-12-07T05:56:16;27.70;;;8.55;;
60086;SDS011;45960;53.630;55.972;2023-12-07T05:57:19;24.23;;;8.90;;
60086;SDS011;45960;53.630;55.972;2023-12-07T05:58:20;22.88;;;8.45;;
60086;SDS011;45960;53.630;55.972;2023-12-07T05:59:21;19.10;;;8.60;;
60086;SDS011;45960;53.630;55.972;2023-12-07T06:00:22;18.88;;;8.77;;
60086;SDS011;45960;53.630;55.972;2023-12-07T06:01:23;23.63;;;7.55;;
60086;SDS011;45960;53.630;55.972;2023-12-07T06:02:25;17.10;;;7.63;;